Time;durP1;ratioP1;P1;durP2;ratioP2;P2;SDS_P1;SDS_P2;PMS_P1;PMS_P2;Temp;Humidity;BMP_temperature;BMP_pressure;BME280_temperature;BME280_humidity;BME280_pressure;Samples;Min_cycle;Max_cycle;Signal;HPM_P1;HPM_P2
2021/04/17 00:01:16;;;;;;;11.90;5.78;;;6.40;86.20;;;;;;5003907;28;20351;-40
2021/04/17 00:03:42;;;;;;;12.02;6.63;;;6.40;86.30;;;;;;4997711;28;20065;-39
2021/04/17 00:06:07;;;;;;;9.30;6.15;;;6.40;86.50;;;;;;5004483;28;20026;-38
2021/04/17 00:08:33;;;;;;;8.93;6.00;;;6.40;86.80;;;;;;4995336;28;20056;-40
2021/04/17 00:10:59;;;;;;;9.65;5.95;;;6.30;87.00;;;;;;5004947;28;20043;-38
2021/04/17 00:13:25;;;;;;;14.65;6.32;;;6.30;87.10;;;;;;4994915;28;20105;-38
2021/04/17 00:15:54;;;;;;;11.98;5.80;;;6.30;87.40;;;;;;5006591;28;20132;-39
2021/04/17 00:18:20;;;;;;;13.70;6.57;;;6.30;87.50;;;;;;4993969;28;20110;-39
2021/04/17 00:20:46;;;;;;;12.35;6.00;;;6.30;87.70;;;;;;5006242;28;20053;-40
2021/04/17 00:23:11;;;;;;;9.15;6.07;;;6.20;87.80;;;;;;4993482;28;20443;-39
2021/04/17 00:25:37;;;;;;;16.20;6.32;;;6.10;88.00;;;;;;5005905;28;20029;-39
2021/04/17 00:28:02;;;;;;;11.52;6.93;;;6.10;88.30;;;;;;4995490;28;20026;-36
2021/04/17 00:30:28;;;;;;;11.65;6.45;;;6.00;88.70;;;;;;5004140;28;20045;-35
2021/04/17 00:32:54;;;;;;;11.00;6.50;;;6.00;88.80;;;;;;4997309;28;20023;-38
2021/04/17 00:35:19;;;;;;;9.68;5.88;;;5.90;89.00;;;;;;5001500;28;20030;-38
2021/04/17 00:37:45;;;;;;;13.32;6.43;;;5.80;89.20;;;;;;5000553;28;20046;-36
2021/04/17 00:40:11;;;;;;;14.32;7.07;;;5.80;89.50;;;;;;4998633;28;20525;-38
2021/04/17 00:42:36;;;;;;;10.88;6.78;;;5.80;89.70;;;;;;5003024;28;20025;-37
2021/04/17 00:45:04;;;;;;;9.95;6.53;;;5.70;89.80;;;;;;4996134;28;20068;-38
2021/04/17 00:47:33;;;;;;;10.25;6.20;;;5.70;89.80;;;;;;5003454;28;20109;-37
2021/04/17 00:49:59;;;;;;;13.18;6.00;;;5.70;90.00;;;;;;4987443;28;20038;-38
2021/04/17 00:52:25;;;;;;;9.95;5.25;;;5.70;90.10;;;;;;4987018;28;20129;-38
2021/04/17 00:54:51;;;;;;;11.15;6.13;;;5.70;90.10;;;;;;4996664;28;20658;-39
2021/04/17 00:57:16;;;;;;;9.43;5.70;;;5.70;90.10;;;;;;4985976;28;20122;-38
2021/04/17 00:59:45;;;;;;;12.15;6.13;;;5.60;90.10;;;;;;4997537;28;20101;-38
2021/04/17 01:02:18;;;;;;;13.30;6.38;;;5.60;90.20;;;;;;4985377;28;20030;-39
2021/04/17 01:04:48;;;;;;;13.27;7.07;;;5.60;90.30;;;;;;4997771;28;20079;-37
2021/04/17 01:07:20;;;;;;;11.38;6.40;;;5.60;90.30;;;;;;4985823;28;20022;-38
2021/04/17 01:09:55;;;;;;;10.90;6.15;;;5.50;90.40;;;;;;4997409;28;20034;-38
2021/04/17 01:12:27;;;;;;;10.07;6.07;;;5.50;90.40;;;;;;4985820;28;20034;-37
2021/04/17 01:14:53;;;;;;;9.80;5.70;;;5.50;90.50;;;;;;4997688;28;20030;-37
2021/04/17 01:17:24;;;;;;;12.30;6.35;;;5.50;90.50;;;;;;4985105;28;20068;-38
2021/04/17 01:20:24;;;;;;;12.18;7.18;;;5.40;90.60;;;;;;4996142;28;20444;-37
2021/04/17 01:23:13;;;;;;;10.20;6.70;;;5.40;90.70;;;;;;4985042;28;20161;-38
2021/04/17 01:25:53;;;;;;;10.90;5.93;;;5.40;90.70;;;;;;4992624;28;20057;-38
2021/04/17 01:28:21;;;;;;;9.25;5.30;;;5.30;90.80;;;;;;5005424;28;20042;-38
2021/04/17 01:30:49;;;;;;;11.80;6.35;;;5.30;90.90;;;;;;4991274;28;20057;-38
2021/04/17 01:33:17;;;;;;;14.85;5.93;;;5.30;90.90;;;;;;5005268;28;20468;-38
2021/04/17 01:35:46;;;;;;;11.32;5.97;;;5.30;91.00;;;;;;4990828;28;20044;-39
2021/04/17 01:38:27;;;;;;;11.18;6.05;;;5.30;91.10;;;;;;5004422;28;20129;-38
2021/04/17 01:41:00;;;;;;;14.73;6.10;;;5.20;91.40;;;;;;4992220;28;20129;-38
2021/04/17 01:43:31;;;;;;;13.70;6.90;;;5.20;91.20;;;;;;5004253;28;20081;-37
2021/04/17 01:46:06;;;;;;;9.70;5.55;;;5.20;91.30;;;;;;4991822;28;20135;-38
2021/04/17 01:48:32;;;;;;;10.50;6.50;;;5.20;91.40;;;;;;5004380;28;20129;-39
2021/04/17 01:51:00;;;;;;;11.68;6.10;;;5.20;91.50;;;;;;4992433;28;20081;-39
2021/04/17 01:53:30;;;;;;;9.60;5.97;;;5.10;91.50;;;;;;5004967;28;20137;-39
2021/04/17 01:55:57;;;;;;;12.25;6.10;;;5.10;91.60;;;;;;4994756;28;20053;-39
2021/04/17 01:58:26;;;;;;;10.20;5.25;;;5.00;91.60;;;;;;5002471;28;20042;-39
2021/04/17 02:00:56;;;;;;;11.25;5.45;;;5.00;91.70;;;;;;4995739;28;20023;-39
2021/04/17 02:03:23;;;;;;;10.60;5.60;;;5.00;91.80;;;;;;5001483;28;20331;-39
2021/04/17 02:05:50;;;;;;;10.40;5.63;;;5.00;91.90;;;;;;4997601;28;20018;-39
2021/04/17 02:08:17;;;;;;;11.95;6.03;;;4.90;92.00;;;;;;4999235;28;20059;-36
2021/04/17 02:10:43;;;;;;;10.35;5.95;;;4.90;92.10;;;;;;5000441;28;20035;-39
2021/04/17 02:13:12;;;;;;;9.38;5.63;;;4.90;92.10;;;;;;4995730;28;20566;-39
2021/04/17 02:15:39;;;;;;;9.30;5.40;;;4.90;92.20;;;;;;5002125;28;20065;-38
2021/04/17 02:18:15;;;;;;;14.57;5.57;;;4.90;92.20;;;;;;4994473;28;20062;-39
2021/04/17 02:20:50;;;;;;;11.07;5.13;;;4.90;92.30;;;;;;5002856;28;20022;-39
2021/04/17 02:23:16;;;;;;;12.57;6.10;;;4.90;92.40;;;;;;4994860;28;20033;-39
2021/04/17 02:25:42;;;;;;;11.35;5.95;;;4.90;92.50;;;;;;5002522;28;20094;-42
2021/04/17 02:28:09;;;;;;;9.20;5.63;;;4.80;92.50;;;;;;4992967;28;20021;-40
2021/04/17 02:30:37;;;;;;;10.15;5.80;;;4.80;92.60;;;;;;5003263;28;20030;-40
2021/04/17 02:33:04;;;;;;;10.68;6.32;;;4.80;92.60;;;;;;4995381;28;20595;-38
2021/04/17 02:35:31;;;;;;;10.50;5.75;;;4.80;92.70;;;;;;4984664;28;20121;-36
2021/04/17 02:37:56;;;;;;;10.02;5.82;;;4.80;92.90;;;;;;4996508;28;20053;-38
2021/04/17 02:40:22;;;;;;;13.02;6.30;;;4.70;92.90;;;;;;4984877;28;20022;-38
2021/04/17 02:42:47;;;;;;;11.93;5.63;;;4.70;93.00;;;;;;4996223;28;20484;-39
2021/04/17 02:45:14;;;;;;;13.50;6.03;;;4.60;93.00;;;;;;4985116;28;20026;-39
2021/04/17 02:47:42;;;;;;;13.35;6.03;;;4.60;93.10;;;;;;4994222;28;20112;-39
2021/04/17 02:50:08;;;;;;;10.43;5.97;;;4.60;93.20;;;;;;4993021;28;20030;-36
2021/04/17 02:52:34;;;;;;;12.68;6.25;;;4.50;93.30;;;;;;4995648;28;20434;-39
2021/04/17 02:55:00;;;;;;;14.40;5.90;;;4.50;93.40;;;;;;4998633;28;20131;-38
2021/04/17 02:57:25;;;;;;;11.95;5.90;;;4.40;93.50;;;;;;4999545;28;20062;-39
2021/04/17 02:59:50;;;;;;;12.35;5.82;;;4.40;93.70;;;;;;5001120;28;20208;-35
2021/04/17 03:02:16;;;;;;;10.32;6.32;;;4.40;93.80;;;;;;5004356;28;20022;-36
2021/04/17 03:04:42;;;;;;;15.10;6.50;;;4.40;93.90;;;;;;4998047;28;20136;-36
2021/04/17 03:07:07;;;;;;;11.48;5.68;;;4.40;94.00;;;;;;5005912;28;20041;-39
2021/04/17 03:09:33;;;;;;;15.15;6.45;;;4.40;94.10;;;;;;4996363;28;20045;-39
2021/04/17 03:11:59;;;;;;;13.50;6.15;;;4.40;94.20;;;;;;5005683;28;20045;-37
2021/04/17 03:14:24;;;;;;;13.25;6.65;;;4.40;94.30;;;;;;4996094;28;20476;-39
2021/04/17 03:16:50;;;;;;;14.75;6.07;;;4.30;94.40;;;;;;5007469;28;20025;-38
2021/04/17 03:19:16;;;;;;;17.30;6.88;;;4.30;94.40;;;;;;4994791;28;20506;-37
2021/04/17 03:21:41;;;;;;;13.80;6.28;;;4.30;94.50;;;;;;5007276;28;20026;-38
2021/04/17 03:24:07;;;;;;;10.35;6.20;;;4.30;94.60;;;;;;4994702;28;20209;-39
2021/04/17 03:26:36;;;;;;;14.00;6.22;;;4.30;94.70;;;;;;4987260;28;20075;-38
2021/04/17 03:29:01;;;;;;;12.50;6.45;;;4.30;94.80;;;;;;4997339;28;20175;-36
2021/04/17 03:31:30;;;;;;;10.48;5.63;;;4.20;94.90;;;;;;4989715;28;20114;-37
2021/04/17 03:33:55;;;;;;;13.77;6.53;;;4.20;94.90;;;;;;4995100;28;20029;-38
2021/04/17 03:36:21;;;;;;;13.80;6.43;;;4.20;95.00;;;;;;4992247;28;20032;-36
2021/04/17 03:38:46;;;;;;;11.90;5.78;;;4.20;95.10;;;;;;4991931;28;20392;-39
2021/04/17 03:41:12;;;;;;;14.43;6.55;;;4.20;95.30;;;;;;4994641;28;20252;-37
2021/04/17 03:43:37;;;;;;;12.15;6.15;;;4.20;95.40;;;;;;4989574;28;20022;-39
2021/04/17 03:46:04;;;;;;;14.95;5.80;;;4.20;95.70;;;;;;4996954;28;20118;-39
2021/04/17 03:48:30;;;;;;;9.68;6.15;;;4.20;95.60;;;;;;4988844;28;20032;-36
2021/04/17 03:50:56;;;;;;;11.55;5.75;;;4.20;95.60;;;;;;4992166;28;20054;-38
2021/04/17 03:53:21;;;;;;;12.65;5.93;;;4.20;95.60;;;;;;4988325;28;20116;-37
2021/04/17 03:55:47;;;;;;;13.70;6.43;;;4.20;95.70;;;;;;4997754;28;20129;-39
2021/04/17 03:58:13;;;;;;;15.25;6.80;;;4.20;95.70;;;;;;4986849;28;20057;-39
2021/04/17 04:00:39;;;;;;;12.38;6.40;;;4.20;95.80;;;;;;4999005;28;20036;-38
2021/04/17 04:03:04;;;;;;;11.60;6.78;;;4.10;95.80;;;;;;4986862;28;20041;-37
2021/04/17 04:05:30;;;;;;;11.55;6.25;;;4.10;95.80;;;;;;4998897;28;20487;-38
2021/04/17 04:07:56;;;;;;;13.68;6.18;;;4.10;95.80;;;;;;4987068;28;20045;-36
2021/04/17 04:10:21;;;;;;;15.15;6.43;;;4.00;95.80;;;;;;4995796;28;20026;-38
2021/04/17 04:12:47;;;;;;;16.27;7.20;;;3.90;95.80;;;;;;4988966;28;20026;-37
2021/04/17 04:15:16;;;;;;;12.95;5.80;;;3.90;95.90;;;;;;4993810;28;20172;-35
2021/04/17 04:17:42;;;;;;;13.63;6.80;;;3.80;95.90;;;;;;4991483;28;20049;-36
2021/04/17 04:20:09;;;;;;;14.32;5.93;;;3.80;96.10;;;;;;4991067;28;20442;-37
2021/04/17 04:22:36;;;;;;;8.77;6.05;;;3.80;96.20;;;;;;4993723;28;20026;-36
2021/04/17 04:25:06;;;;;;;14.25;6.40;;;3.80;96.30;;;;;;4988690;28;20118;-39
2021/04/17 04:27:32;;;;;;;13.45;6.97;;;3.70;96.40;;;;;;4995231;28;20022;-37
2021/04/17 04:29:57;;;;;;;14.63;6.68;;;3.70;96.50;;;;;;4988014;28;20030;-38
2021/04/17 04:32:23;;;;;;;13.20;6.20;;;3.70;96.50;;;;;;4997108;28;20034;-38
2021/04/17 04:34:48;;;;;;;11.00;6.40;;;3.80;96.60;;;;;;4987563;28;20363;-39
2021/04/17 04:37:14;;;;;;;9.23;6.57;;;3.70;96.50;;;;;;4997594;28;20120;-38
2021/04/17 04:39:40;;;;;;;12.90;6.53;;;3.70;96.50;;;;;;4985495;28;20601;-37
2021/04/17 04:42:05;;;;;;;14.38;6.53;;;3.70;96.50;;;;;;4998362;28;20507;-38
2021/04/17 04:44:34;;;;;;;14.65;7.15;;;3.60;96.40;;;;;;4986367;28;20041;-38
2021/04/17 04:46:59;;;;;;;12.93;6.75;;;3.50;96.40;;;;;;4997464;28;20068;-38
2021/04/17 04:49:25;;;;;;;13.82;6.50;;;3.50;96.40;;;;;;4986116;28;20427;-37
2021/04/17 04:51:50;;;;;;;13.60;7.00;;;3.50;96.50;;;;;;4994673;28;20022;-38
2021/04/17 04:54:16;;;;;;;15.35;6.40;;;3.40;96.50;;;;;;5004516;28;20576;-38
2021/04/17 04:56:42;;;;;;;12.85;6.18;;;3.40;96.60;;;;;;4997753;28;20697;-37
2021/04/17 04:59:07;;;;;;;16.67;7.45;;;3.30;96.70;;;;;;5001300;28;20124;-38
2021/04/17 05:01:33;;;;;;;12.77;7.13;;;3.30;96.70;;;;;;4999808;28;20053;-38
2021/04/17 05:04:01;;;;;;;14.18;6.85;;;3.30;96.90;;;;;;4998391;28;20033;-37
2021/04/17 05:06:29;;;;;;;14.10;8.02;;;3.30;96.90;;;;;;5002631;28;20029;-37
2021/04/17 05:08:55;;;;;;;16.52;6.70;;;3.30;97.00;;;;;;4995978;28;20041;-38
2021/04/17 05:11:20;;;;;;;14.23;6.85;;;3.30;97.00;;;;;;5004088;28;20014;-37
2021/04/17 05:13:46;;;;;;;11.13;6.85;;;3.30;97.00;;;;;;4994577;28;20101;-37
2021/04/17 05:16:13;;;;;;;11.93;7.07;;;3.30;97.00;;;;;;5003669;28;20060;-38
2021/04/17 05:18:39;;;;;;;15.70;5.95;;;3.30;97.10;;;;;;4994307;28;20022;-39
2021/04/17 05:21:04;;;;;;;12.05;6.90;;;3.30;97.30;;;;;;5004183;28;20109;-39
2021/04/17 05:23:30;;;;;;;14.73;7.10;;;3.30;97.20;;;;;;4992526;28;20710;-38
2021/04/17 05:25:59;;;;;;;12.35;6.40;;;3.40;97.30;;;;;;5005231;28;20111;-39
2021/04/17 05:28:24;;;;;;;14.40;6.88;;;3.40;97.30;;;;;;4991188;28;20121;-36
2021/04/17 05:30:50;;;;;;;14.85;6.60;;;3.50;97.40;;;;;;5004969;28;20048;-36
2021/04/17 05:33:15;;;;;;;12.88;6.35;;;3.50;97.40;;;;;;4994753;28;20808;-39
2021/04/17 05:35:41;;;;;;;12.32;6.22;;;3.50;97.40;;;;;;5002772;28;20128;-36
2021/04/17 05:38:06;;;;;;;14.82;6.60;;;3.60;97.80;;;;;;4996647;28;20030;-37
2021/04/17 05:40:32;;;;;;;14.48;5.97;;;3.60;97.50;;;;;;5000726;28;20377;-35
2021/04/17 05:42:57;;;;;;;15.68;6.78;;;3.70;97.50;;;;;;4998896;28;20058;-38
2021/04/17 05:45:23;;;;;;;11.40;6.43;;;3.80;97.40;;;;;;4998252;28;20062;-39
2021/04/17 05:47:48;;;;;;;10.80;5.80;;;3.80;97.30;;;;;;5002023;28;20464;-38
2021/04/17 05:50:14;;;;;;;12.23;6.53;;;3.80;97.30;;;;;;4989090;28;20038;-38
2021/04/17 05:52:40;;;;;;;14.40;6.97;;;3.90;97.20;;;;;;4986398;28;20054;-36
2021/04/17 05:55:06;;;;;;;14.55;6.63;;;3.90;97.10;;;;;;4996616;28;20030;-38
2021/04/17 05:57:32;;;;;;;10.13;6.22;;;3.90;97.10;;;;;;4985785;28;20057;-36
2021/04/17 05:59:57;;;;;;;10.60;6.28;;;3.90;97.00;;;;;;4996296;28;20022;-38
2021/04/17 06:02:24;;;;;;;16.65;6.30;;;4.00;97.10;;;;;;4985505;28;20137;-37
2021/04/17 06:04:49;;;;;;;13.23;6.90;;;4.00;97.10;;;;;;4996434;28;20034;-39
2021/04/17 06:07:15;;;;;;;10.88;6.47;;;4.00;97.00;;;;;;4985515;28;20092;-41
2021/04/17 06:09:40;;;;;;;11.77;6.03;;;4.10;97.10;;;;;;4997194;28;20053;-41
2021/04/17 06:12:10;;;;;;;13.48;6.28;;;4.10;97.00;;;;;;4984454;28;20037;-36
2021/04/17 06:14:35;;;;;;;12.90;6.03;;;4.20;97.00;;;;;;4995132;28;20041;-37
2021/04/17 06:17:04;;;;;;;10.40;5.85;;;4.30;97.00;;;;;;4987036;28;20060;-38
2021/04/17 06:19:29;;;;;;;13.18;6.38;;;4.30;96.90;;;;;;4992962;28;20062;-40
2021/04/17 06:21:55;;;;;;;14.65;6.43;;;4.40;96.90;;;;;;4989006;28;20110;-40
2021/04/17 06:24:21;;;;;;;11.32;5.78;;;4.50;96.80;;;;;;4990936;28;20014;-40
2021/04/17 06:26:46;;;;;;;14.85;5.63;;;4.50;96.70;;;;;;4991094;28;20109;-39
2021/04/17 06:29:12;;;;;;;13.60;6.57;;;4.50;96.90;;;;;;4987851;28;20034;-37
2021/04/17 06:31:38;;;;;;;11.32;5.93;;;4.60;96.60;;;;;;4994237;28;20094;-38
2021/04/17 06:34:12;;;;;;;9.90;5.50;;;4.60;96.50;;;;;;4990742;28;20085;-39
2021/04/17 06:36:38;;;;;;;12.00;5.95;;;4.70;96.60;;;;;;4998107;28;20389;-39
2021/04/17 06:39:06;;;;;;;11.32;4.97;;;4.70;96.50;;;;;;5006443;28;20133;-39
2021/04/17 06:41:33;;;;;;;8.70;6.13;;;4.80;96.50;;;;;;4997204;28;20373;-37
2021/04/17 06:44:01;;;;;;;13.35;5.82;;;4.80;96.40;;;;;;5007614;28;20109;-39
2021/04/17 06:46:31;;;;;;;12.40;5.78;;;4.90;96.40;;;;;;4996402;28;20050;-39
2021/04/17 06:49:00;;;;;;;12.43;5.63;;;5.00;96.40;;;;;;5008689;28;20140;-37
2021/04/17 06:51:26;;;;;;;9.02;5.72;;;5.00;96.40;;;;;;4995764;28;20030;-39
2021/04/17 06:53:53;;;;;;;13.07;5.53;;;5.10;96.30;;;;;;5007546;28;20117;-39
2021/04/17 06:56:22;;;;;;;12.43;5.32;;;5.20;96.30;;;;;;4995930;28;20073;-39
2021/04/17 06:58:48;;;;;;;11.90;5.35;;;5.20;96.30;;;;;;5005701;28;20053;-37
2021/04/17 07:01:13;;;;;;;10.95;5.07;;;5.30;96.20;;;;;;4994964;28;20584;-37
2021/04/17 07:03:39;;;;;;;12.05;5.43;;;5.40;96.10;;;;;;5005940;28;20041;-39
2021/04/17 07:06:05;;;;;;;10.50;5.13;;;5.50;95.90;;;;;;4997874;28;20418;-39
2021/04/17 07:08:40;;;;;;;9.95;4.85;;;5.60;95.90;;;;;;5002136;28;20045;-38
2021/04/17 07:11:06;;;;;;;10.32;5.05;;;5.70;95.80;;;;;;4999527;28;20030;-40
2021/04/17 07:13:33;;;;;;;10.80;6.00;;;5.70;95.70;;;;;;5001569;28;20373;-39
2021/04/17 07:16:10;;;;;;;9.75;4.88;;;5.80;95.60;;;;;;5001701;28;20031;-39
2021/04/17 07:18:37;;;;;;;9.27;4.57;;;5.90;95.50;;;;;;5000839;28;20065;-37
2021/04/17 07:21:14;;;;;;;10.27;5.32;;;6.00;95.40;;;;;;5002488;28;20022;-38
2021/04/17 07:23:43;;;;;;;13.52;4.38;;;6.10;95.20;;;;;;5000718;28;20030;-38
2021/04/17 07:26:14;;;;;;;11.73;4.50;;;6.20;95.10;;;;;;5003179;28;20073;-39
2021/04/17 07:28:59;;;;;;;8.32;4.20;;;6.30;94.90;;;;;;4998500;28;20037;-36
2021/04/17 07:31:27;;;;;;;7.43;3.47;;;6.40;94.80;;;;;;5003636;28;20025;-37
2021/04/17 07:33:53;;;;;;;7.80;3.20;;;6.50;94.50;;;;;;4987760;28;20545;-39
2021/04/17 07:36:22;;;;;;;7.95;3.83;;;6.60;94.10;;;;;;4989570;28;20049;-38
2021/04/17 07:38:48;;;;;;;8.00;3.08;;;6.70;93.60;;;;;;4997224;28;20466;-38
2021/04/17 07:41:17;;;;;;;7.82;2.70;;;6.90;93.20;;;;;;4989300;28;20113;-39
2021/04/17 07:44:04;;;;;;;7.18;2.25;;;7.00;92.70;;;;;;4997246;28;20026;-38
2021/04/17 07:46:45;;;;;;;3.60;2.08;;;7.10;92.50;;;;;;4996603;28;20045;-38
2021/04/17 07:49:15;;;;;;;4.97;2.40;;;7.20;92.40;;;;;;4996114;28;20768;-39
2021/04/17 07:52:02;;;;;;;5.13;2.38;;;7.30;92.20;;;;;;4991726;28;20240;-39
2021/04/17 07:54:29;;;;;;;5.60;2.38;;;7.40;91.90;;;;;;4998136;28;20492;-40
2021/04/17 07:56:55;;;;;;;5.55;2.30;;;7.40;91.90;;;;;;5005058;28;20036;-39
2021/04/17 07:59:23;;;;;;;5.28;2.72;;;7.50;92.00;;;;;;4996534;28;20034;-37
2021/04/17 08:01:50;;;;;;;3.75;1.90;;;7.50;92.10;;;;;;5006419;28;20029;-40
2021/04/17 08:04:25;;;;;;;3.65;2.40;;;7.60;92.10;;;;;;4995919;28;20678;-39
2021/04/17 08:06:52;;;;;;;4.35;2.15;;;7.60;91.90;;;;;;5005099;28;20073;-39
2021/04/17 08:09:21;;;;;;;6.65;2.20;;;7.70;91.70;;;;;;4996780;28;20033;-39
2021/04/17 08:11:50;;;;;;;4.88;2.05;;;7.80;91.60;;;;;;5006761;28;20048;-39
2021/04/17 08:14:17;;;;;;;3.20;1.70;;;7.80;91.40;;;;;;4995462;28;20018;-39
2021/04/17 08:16:43;;;;;;;6.07;2.28;;;7.90;91.30;;;;;;5007061;28;20029;-40
2021/04/17 08:19:09;;;;;;;8.57;2.97;;;7.90;90.10;;;;;;4993174;28;20077;-35
2021/04/17 08:21:35;;;;;;;5.70;3.00;;;8.00;88.70;;;;;;5006710;28;20053;-37
2021/04/17 08:24:01;;;;;;;3.67;1.63;;;8.10;87.50;;;;;;4994931;28;20840;-39
2021/04/17 08:26:29;;;;;;;4.68;1.58;;;8.20;84.60;;;;;;5005400;28;20538;-40
2021/04/17 08:28:55;;;;;;;4.68;1.80;;;8.30;84.20;;;;;;4997061;28;20064;-39
2021/04/17 08:31:25;;;;;;;6.47;1.70;;;8.30;84.10;;;;;;5003075;28;20068;-39
2021/04/17 08:34:17;;;;;;;5.60;1.73;;;8.40;83.70;;;;;;4999240;28;20124;-37
2021/04/17 08:37:12;;;;;;;5.03;2.10;;;8.50;84.10;;;;;;5004201;28;20075;-40
2021/04/17 08:39:37;;;;;;;4.30;2.25;;;8.60;82.30;;;;;;4993245;28;20077;-38
2021/04/17 08:42:05;;;;;;;5.50;2.17;;;8.70;82.20;;;;;;5005271;28;20057;-38
2021/04/17 08:44:39;;;;;;;4.13;1.95;;;8.70;82.10;;;;;;4996355;28;20165;-37
2021/04/17 08:47:08;;;;;;;6.47;2.17;;;8.80;81.50;;;;;;5004330;28;20033;-39
2021/04/17 08:49:37;;;;;;;7.38;1.83;;;8.90;81.40;;;;;;4997064;28;20026;-37
2021/04/17 08:52:20;;;;;;;9.02;3.70;;;9.00;80.00;;;;;;5003980;28;20061;-39
2021/04/17 08:54:46;;;;;;;;;;;9.00;79.80;;;;;;4995121;28;20026;-39
2021/04/17 08:57:17;;;;;;;3.08;1.65;;;9.20;79.60;;;;;;5002362;28;20038;-39
2021/04/17 08:59:52;;;;;;;5.25;1.90;;;9.20;79.00;;;;;;4999770;28;20172;-38
2021/04/17 09:02:19;;;;;;;3.85;1.73;;;9.20;78.50;;;;;;4992326;28;20033;-36
2021/04/17 09:05:07;;;;;;;5.10;2.05;;;9.30;77.20;;;;;;4995126;28;20130;-37
2021/04/17 09:07:37;;;;;;;4.90;1.88;;;9.30;76.50;;;;;;5000522;28;20049;-37
2021/04/17 09:10:24;;;;;;;4.03;1.80;;;9.30;74.90;;;;;;4997307;28;20393;-38
2021/04/17 09:13:09;;;;;;;7.30;2.33;;;9.50;75.60;;;;;;5002460;28;20030;-35
2021/04/17 09:15:49;;;;;;;5.15;1.83;;;9.60;75.10;;;;;;5000152;28;20033;-39
2021/04/17 09:18:36;;;;;;;2.85;1.95;;;9.60;75.40;;;;;;4986231;28;20042;-39
2021/04/17 09:21:07;;;;;;;8.63;2.28;;;9.70;75.90;;;;;;4997596;28;20108;-35
2021/04/17 09:23:36;;;;;;;5.53;2.50;;;9.70;74.80;;;;;;5004495;28;20159;-38
2021/04/17 09:26:03;;;;;;;5.18;2.30;;;9.80;73.80;;;;;;4997193;28;20026;-38
2021/04/17 09:28:37;;;;;;;5.65;2.20;;;9.80;73.70;;;;;;4999494;28;20022;-37
2021/04/17 09:31:03;;;;;;;5.57;2.55;;;9.80;73.90;;;;;;4996398;28;20133;-37
2021/04/17 09:33:29;;;;;;;4.78;2.30;;;9.90;73.60;;;;;;5002521;28;20117;-37
2021/04/17 09:35:55;;;;;;;5.53;2.35;;;10.00;73.70;;;;;;4997802;28;20026;-39
2021/04/17 09:38:23;;;;;;;5.18;2.92;;;10.00;72.40;;;;;;5000518;28;20040;-39
2021/04/17 09:40:51;;;;;;;3.55;1.92;;;10.00;73.00;;;;;;5000112;28;20022;-37
2021/04/17 09:43:31;;;;;;;3.88;2.20;;;10.10;73.10;;;;;;4996047;28;20577;-39
2021/04/17 09:46:02;;;;;;;5.95;2.42;;;10.10;73.20;;;;;;5001260;28;20307;-38
2021/04/17 09:48:41;;;;;;;5.72;2.20;;;10.20;72.80;;;;;;4998256;28;20026;-38
2021/04/17 09:51:24;;;;;;;5.68;2.20;;;10.30;72.40;;;;;;4999646;28;20075;-39
2021/04/17 09:53:51;;;;;;;6.47;1.90;;;10.30;72.80;;;;;;4991508;28;20390;-39
2021/04/17 09:56:33;;;;;;;4.80;2.35;;;10.40;72.80;;;;;;4990905;28;20137;-39
2021/04/17 09:59:07;;;;;;;6.45;2.90;;;10.60;72.30;;;;;;4991079;28;20049;-38
2021/04/17 10:01:33;;;;;;;4.65;2.42;;;10.70;71.90;;;;;;4999691;28;20022;-37
2021/04/17 10:04:01;;;;;;;6.38;2.70;;;10.80;71.60;;;;;;4997457;28;20037;-39
2021/04/17 10:06:35;;;;;;;7.47;2.70;;;11.00;71.60;;;;;;5001178;28;20029;-38
2021/04/17 10:09:06;;;;;;;4.65;2.20;;;11.20;71.60;;;;;;4996612;28;20526;-38
2021/04/17 10:11:32;;;;;;;8.15;3.30;;;11.30;70.90;;;;;;5002029;28;20508;-38
2021/04/17 10:13:57;;;;;;;4.93;2.83;;;11.40;70.30;;;;;;4998107;28;20041;-37
2021/04/17 10:16:35;;;;;;;8.35;2.90;;;11.50;68.80;;;;;;4995685;28;20395;-39
2021/04/17 10:19:02;;;;;;;5.95;2.70;;;11.50;68.30;;;;;;4993415;28;20693;-40
2021/04/17 10:21:33;;;;;;;6.63;3.28;;;11.60;69.20;;;;;;4994290;28;20104;-39
2021/04/17 10:24:28;;;;;;;6.50;3.03;;;11.70;68.80;;;;;;5000959;28;20114;-39
2021/04/17 10:26:55;;;;;;;5.53;3.13;;;11.80;68.50;;;;;;4986900;28;20030;-40
2021/04/17 10:29:52;;;;;;;7.68;2.75;;;11.80;68.70;;;;;;5004317;28;20117;-40
2021/04/17 10:32:20;;;;;;;5.40;2.80;;;11.90;67.90;;;;;;4995307;28;20553;-40
2021/04/17 10:34:54;;;;;;;9.88;3.25;;;11.90;66.80;;;;;;5000040;28;20113;-40
2021/04/17 10:37:23;;;;;;;6.85;3.05;;;11.90;66.30;;;;;;5002402;28;20029;-39
2021/04/17 10:40:04;;;;;;;6.88;2.60;;;11.80;66.80;;;;;;4998884;28;20115;-39
2021/04/17 10:42:56;;;;;;;5.55;2.95;;;11.80;67.60;;;;;;5001140;28;20612;-37
2021/04/17 10:45:24;;;;;;;7.78;2.70;;;11.80;66.70;;;;;;5001564;28;20161;-38
2021/04/17 10:48:09;;;;;;;7.38;3.30;;;11.90;65.60;;;;;;4999525;28;20050;-37
2021/04/17 10:50:56;;;;;;;6.90;2.70;;;11.80;65.10;;;;;;4992211;28;20030;-39
2021/04/17 10:53:25;;;;;;;7.72;3.20;;;11.80;64.30;;;;;;4990845;28;20025;-38
2021/04/17 10:55:52;;;;;;;6.70;3.13;;;11.60;64.90;;;;;;5003732;28;20032;-38
2021/04/17 10:58:27;;;;;;;6.95;3.53;;;11.60;65.00;;;;;;5002193;28;20108;-39
2021/04/17 11:01:08;;;;;;;4.80;2.90;;;11.60;65.00;;;;;;4996276;28;20034;-37
2021/04/17 11:03:52;;;;;;;8.07;2.75;;;11.60;65.80;;;;;;5000345;28;20018;-39
2021/04/17 11:06:19;;;;;;;7.40;3.30;;;11.70;65.70;;;;;;4993037;28;20435;-39
2021/04/17 11:08:46;;;;;;;6.63;2.75;;;11.90;65.60;;;;;;4998237;28;20033;-39
2021/04/17 11:11:20;;;;;;;7.55;3.67;;;12.00;64.10;;;;;;5002725;28;20033;-40
2021/04/17 11:13:54;;;;;;;6.75;3.00;;;11.90;61.50;;;;;;4995161;28;20129;-38
2021/04/17 11:16:34;;;;;;;6.97;3.35;;;11.90;61.60;;;;;;5000666;28;20056;-38
2021/04/17 11:19:00;;;;;;;5.20;3.03;;;11.90;62.10;;;;;;5001458;28;20175;-39
2021/04/17 11:21:28;;;;;;;5.78;2.83;;;11.90;62.20;;;;;;5003892;28;20105;-38
2021/04/17 11:24:00;;;;;;;6.60;2.92;;;11.80;61.90;;;;;;5005896;28;20051;-38
2021/04/17 11:26:38;;;;;;;6.32;2.50;;;11.80;61.50;;;;;;4997971;28;20022;-40
2021/04/17 11:29:04;;;;;;;5.30;2.53;;;11.70;62.40;;;;;;5002851;28;20116;-38
2021/04/17 11:31:33;;;;;;;5.38;2.53;;;11.80;63.10;;;;;;5003532;28;20034;-38
2021/04/17 11:34:01;;;;;;;7.47;2.90;;;11.90;62.60;;;;;;5002432;28;20096;-39
2021/04/17 11:36:30;;;;;;;6.47;2.95;;;12.10;63.00;;;;;;4997776;28;20323;-40
2021/04/17 11:38:56;;;;;;;7.40;2.88;;;12.30;62.10;;;;;;5002608;28;20034;-37
2021/04/17 11:41:23;;;;;;;4.95;2.50;;;12.30;62.40;;;;;;4995219;28;20053;-36
2021/04/17 11:43:49;;;;;;;5.22;2.22;;;12.40;61.50;;;;;;5007535;28;20022;-38
2021/04/17 11:46:16;;;;;;;5.15;3.17;;;12.40;61.30;;;;;;4992555;28;20377;-38
2021/04/17 11:48:43;;;;;;;9.98;2.90;;;12.50;61.00;;;;;;5005123;28;20104;-37
2021/04/17 11:51:10;;;;;;;5.15;2.70;;;12.40;61.10;;;;;;4992126;28;20640;-39
2021/04/17 11:53:37;;;;;;;6.97;3.17;;;12.50;61.90;;;;;;4985977;28;20037;-38
2021/04/17 11:56:04;;;;;;;8.27;3.28;;;12.50;61.40;;;;;;4990199;28;20030;-38
2021/04/17 11:58:30;;;;;;;5.60;2.70;;;12.60;61.40;;;;;;5003791;28;20060;-39
2021/04/17 12:00:56;;;;;;;5.43;2.83;;;12.60;61.00;;;;;;4997301;28;20022;-38
2021/04/17 12:03:25;;;;;;;6.07;2.72;;;12.60;60.40;;;;;;5003129;28;20061;-40
2021/04/17 12:05:52;;;;;;;4.28;2.28;;;12.60;60.60;;;;;;5000905;28;20061;-38
2021/04/17 12:08:18;;;;;;;6.75;3.13;;;12.70;61.30;;;;;;5001944;28;20038;-38
2021/04/17 12:10:44;;;;;;;6.45;2.90;;;12.90;60.70;;;;;;5002161;28;20066;-38
2021/04/17 12:13:10;;;;;;;4.32;2.55;;;13.00;61.10;;;;;;4999376;28;20029;-38
2021/04/17 12:15:36;;;;;;;7.63;3.45;;;13.10;61.10;;;;;;5003151;28;20025;-40
2021/04/17 12:18:02;;;;;;;5.55;2.83;;;13.30;60.50;;;;;;4996098;28;20335;-39
2021/04/17 12:20:28;;;;;;;5.50;2.65;;;13.30;59.90;;;;;;5006127;28;20031;-37
2021/04/17 12:22:55;;;;;;;6.72;3.05;;;13.40;59.20;;;;;;4995399;28;20041;-39
2021/04/17 12:25:22;;;;;;;6.35;3.00;;;13.30;58.00;;;;;;5006221;28;20121;-35
2021/04/17 12:27:47;;;;;;;6.78;3.13;;;13.40;58.20;;;;;;4995070;28;20055;-38
2021/04/17 12:30:13;;;;;;;6.63;3.08;;;13.40;58.60;;;;;;5005658;28;20120;-37
2021/04/17 12:32:39;;;;;;;6.20;2.90;;;13.50;58.30;;;;;;4994013;28;20026;-40
2021/04/17 12:35:06;;;;;;;6.50;3.17;;;13.60;58.30;;;;;;5006731;28;20299;-39
2021/04/17 12:37:33;;;;;;;6.80;3.00;;;13.60;57.20;;;;;;4999653;28;20065;-36
2021/04/17 12:39:58;;;;;;;8.98;3.17;;;13.40;57.10;;;;;;4987460;28;20031;-37
2021/04/17 12:42:24;;;;;;;5.57;3.03;;;13.30;57.20;;;;;;4996475;28;20040;-40
2021/04/17 12:44:50;;;;;;;6.20;2.95;;;13.30;57.30;;;;;;4989490;28;20248;-39
2021/04/17 12:47:15;;;;;;;4.53;2.80;;;13.20;58.20;;;;;;4993286;28;20053;-38
2021/04/17 12:49:41;;;;;;;4.35;2.45;;;13.30;58.90;;;;;;4993111;28;20029;-38
2021/04/17 12:52:07;;;;;;;8.98;3.30;;;13.40;58.50;;;;;;4998238;28;20617;-35
2021/04/17 12:54:32;;;;;;;6.53;3.70;;;13.50;59.30;;;;;;4998385;28;20551;-38
2021/04/17 12:56:58;;;;;;;8.45;3.35;;;13.40;59.40;;;;;;5005003;28;20080;-36
2021/04/17 12:59:24;;;;;;;4.47;3.00;;;13.30;59.60;;;;;;4994679;28;20141;-39